We konden geen weer-waarchuwingen ophalen. Ga rechtstreeks naar de Meteoalarm site : www.meteoalarm.eu en controleer daar .


Bezoek ook deze websites:

Mijn andere website

Weerstation Noordbergum

Weerstation in Leuven


U vindt ons ook hier:

Weather Underground


Select another period ( hide this area )

Eenheden Periode Custom range Directly to
Metrisch Engels Beide
Dagelijkse Wekelijkse Maandelijkse Jaarlijkse
use both date-selectors for a custom range
previous Dag
With this date

WeatherUnderground graphs for this period ( click here )


Dagelijkse Samenvatting Zaterdag 23 februari 2019
Tijd Temp. ( °C ) Dew pt. ( °C ) Wind ( km/h ) van Windvlaag ( km/h ) Luchtdruk ( hPa ) Humid.( % ) Rainrate ( cm )
Hoog5,9 -1,3 4,7 OZO ( 11/29 ) 9,7 1039,8 64 -
Gemiddeld4,7 -2,1 1,0 Kalm #19/30 4,2 1039,3 61 -
Laag3,2 -3,0 -   0,0 1039,2 60 -
Dagelijkse Tabular details for Zaterdag 23 februari 2019
Tijd Temp. ( °C ) Dew pt. ( °C ) Wind ( km/h ) van Windvlaag ( km/h ) Luchtdruk ( hPa ) Humid.( % ) Rainrate ( cm )
00:00 5,9 -1,3 4,7 Oosten 9,7 1039,5 60 -
00:05 5,9 -1,3 3,2 OZO 9,7 1039,5 60 -
00:10 5,9 -1,3 3,2 OZO 6,4 1039,8 60 -
00:15 5,9 -1,3 1,4 OZO 6,4 1039,5 60 -
00:20 5,7 -1,5   Kalm   1039,5 60 -
00:25 5,5 -1,7   Kalm 1,6 1039,5 60 -
00:30 5,4 -1,7   Kalm 6,4 1039,5 60 -
00:35 5,4 -1,7   Kalm   1039,2 60 -
00:40 5,3 -1,8   Kalm 6,4 1039,2 60 -
00:45 5,2 -1,9   Kalm 1,6 1039,2 60 -
00:50 5,1 -1,8   Kalm 3,2 1039,2 61 -
00:55 5,0 -1,9 1,4 ZO 6,4 1039,2 61 -
01:00 4,9 -2,0   Kalm 8,0 1039,2 61 -
01:05 4,8 -2,1 1,4 ZO 9,7 1039,2 61 -
01:10 4,8 -2,1 1,4 Zuiden 6,4 1039,2 61 -
01:15 4,7 -2,2 4,7 ZO 4,8 1039,2 61 -
01:20 4,7 -2,2 1,4 ZZO 9,7 1039,2 61 -
01:25 4,6 -2,3 3,2 ZO 6,4 1039,2 61 -
01:30 4,4 -2,5   Kalm 4,8 1039,2 61 -
01:35 4,3 -2,3   Kalm 3,2 1039,2 62 -
01:40 4,2 -2,4   Kalm 3,2 1039,2 62 -
01:45 4,1 -2,5   Kalm   1039,2 62 -
01:50 3,9 -2,7   Kalm   1039,2 62 -
01:55 3,8 -2,6 3,2 OZO 4,8 1039,2 63 -
02:00 3,7 -2,7   Kalm   1039,2 63 -
02:05 3,6 -2,8   Kalm   1039,2 63 -
02:10 3,6 -2,8   Kalm 3,2 1039,2 63 -
02:15 3,4 -2,8   Kalm   1039,2 64 -
02:20 3,3 -2,9   Kalm 1,6 1039,2 64 -
02:25 3,2 -3,0   Kalm 3,2 1039,2 64 -
Dagelijkse Samenvatting Zaterdag 23 februari 2019
Tijd Temp. ( °C ) Dew pt. ( °C ) Wind ( km/h ) van Windvlaag ( km/h ) Luchtdruk ( hPa ) Humid.( % ) Rainrate ( cm )
Hoog5,9 -1,3 4,7 OZO ( 11/29 ) 9,7 1039,8 64 -
Gemiddeld4,7 -2,1 1,0 Kalm #19/30 4,2 1039,3 61 -
Laag3,2 -3,0 -   0,0 1039,2 60 -
Dagelijkse Tabular details for Zaterdag 23 februari 2019
Tijd Temp. ( °C ) Dew pt. ( °C ) Wind ( km/h ) van Windvlaag ( km/h ) Luchtdruk ( hPa ) Humid.( % ) Rainrate ( cm )
00:00 5,9 -1,3 4,7 Oosten 9,7 1039,5 60 -
00:05 5,9 -1,3 3,2 OZO 9,7 1039,5 60 -
00:10 5,9 -1,3 3,2 OZO 6,4 1039,8 60 -
00:15 5,9 -1,3 1,4 OZO 6,4 1039,5 60 -
00:20 5,7 -1,5   Kalm   1039,5 60 -
00:25 5,5 -1,7   Kalm 1,6 1039,5 60 -
00:30 5,4 -1,7   Kalm 6,4 1039,5 60 -
00:35 5,4 -1,7   Kalm   1039,2 60 -
00:40 5,3 -1,8   Kalm 6,4 1039,2 60 -
00:45 5,2 -1,9   Kalm 1,6 1039,2 60 -
00:50 5,1 -1,8   Kalm 3,2 1039,2 61 -
00:55 5,0 -1,9 1,4 ZO 6,4 1039,2 61 -
01:00 4,9 -2,0   Kalm 8,0 1039,2 61 -
01:05 4,8 -2,1 1,4 ZO 9,7 1039,2 61 -
01:10 4,8 -2,1 1,4 Zuiden 6,4 1039,2 61 -
01:15 4,7 -2,2 4,7 ZO 4,8 1039,2 61 -
01:20 4,7 -2,2 1,4 ZZO 9,7 1039,2 61 -
01:25 4,6 -2,3 3,2 ZO 6,4 1039,2 61 -
01:30 4,4 -2,5   Kalm 4,8 1039,2 61 -
01:35 4,3 -2,3   Kalm 3,2 1039,2 62 -
01:40 4,2 -2,4   Kalm 3,2 1039,2 62 -
01:45 4,1 -2,5   Kalm   1039,2 62 -
01:50 3,9 -2,7   Kalm   1039,2 62 -
01:55 3,8 -2,6 3,2 OZO 4,8 1039,2 63 -
02:00 3,7 -2,7   Kalm   1039,2 63 -
02:05 3,6 -2,8   Kalm   1039,2 63 -
02:10 3,6 -2,8   Kalm 3,2 1039,2 63 -
02:15 3,4 -2,8   Kalm   1039,2 64 -
02:20 3,3 -2,9   Kalm 1,6 1039,2 64 -
02:25 3,2 -3,0   Kalm 3,2 1039,2 64 -

Download your copy of this data-set  here

Our weather-data as stored at Weather Underground. Script ontwikkeld door Jim McMurry. Aangepast voor de template door Leuven-Template.eu

Apparatuur in gebruik:

Weerstation
Davis VP2

Weerprogramma
Meteobridge

Weercomputer
TP-link TL-MR3020

Webleverancier
Versio

Davis VP2

Meteobridge

TP-link TL-MR3020

Versio